Terminal Aerodrome Forecast
Issued by NWS

Home | Current Version | Previous Version | Text Only | Print | Product List | Glossary On
Versions: 1 2 3 4 5 6 7 8 9 10 11 12
000
FTUS42 TJSJ 301120
TAFIST
TAF
TIST 301120Z 3012/0112 06010KT P6SM VCSH FEW025
     FM301300 09015G25KT P6SM VCSH SCT025 SCT060
     FM302300 08010G20KT P6SM SCT025 SCT060=

USA.gov is the U.S. government's official web portal to all federal, state and local government web resources and services.